createdAt,value
2022-09-22T00:01:22.550Z,5.20
2022-09-22T00:03:51.172Z,4.95
2022-09-22T00:06:21.391Z,6.47
2022-09-22T00:08:50.965Z,4.47
2022-09-22T00:11:20.471Z,4.75
2022-09-22T00:13:52.189Z,5.32
2022-09-22T00:16:20.876Z,10.60
2022-09-22T00:18:50.729Z,4.25
2022-09-22T00:21:20.196Z,4.15
2022-09-22T00:23:48.949Z,4.60
2022-09-22T00:26:19.261Z,7.70
2022-09-22T00:28:51.545Z,5.15
2022-09-22T00:31:20.922Z,8.10
2022-09-22T00:33:49.123Z,6.05
2022-09-22T00:36:17.968Z,6.93
2022-09-22T00:38:46.661Z,3.90
2022-09-22T00:41:17.302Z,7.30
2022-09-22T00:43:47.885Z,7.60
2022-09-22T00:46:19.630Z,3.95
2022-09-22T00:48:51.523Z,5.28
2022-09-22T00:51:22.016Z,6.07
2022-09-22T00:53:50.239Z,6.50
2022-09-22T00:56:19.719Z,6.05
2022-09-22T00:58:51.300Z,5.30
2022-09-22T01:01:20.623Z,5.80
2022-09-22T01:03:49.226Z,6.63
2022-09-22T01:06:19.333Z,5.85
2022-09-22T01:08:47.581Z,6.40
2022-09-22T01:11:16.371Z,7.80
2022-09-22T01:13:59.579Z,7.47
2022-09-22T01:16:35.860Z,4.20
2022-09-22T01:19:11.349Z,7.55
2022-09-22T01:21:42.460Z,6.40
2022-09-22T01:24:20.833Z,5.55
2022-09-22T01:27:06.668Z,8.40
2022-09-22T01:29:45.860Z,4.85
2022-09-22T01:32:18.531Z,7.57
2022-09-22T01:34:49.748Z,6.95
2022-09-22T01:37:22.460Z,5.07
2022-09-22T01:39:52.485Z,7.93
2022-09-22T01:42:23.628Z,7.18
2022-09-22T01:44:54.340Z,6.63
2022-09-22T01:47:26.052Z,5.60
2022-09-22T01:49:55.246Z,7.55
2022-09-22T01:52:24.816Z,5.97
2022-09-22T01:54:54.579Z,5.28
2022-09-22T01:57:24.772Z,4.80
2022-09-22T01:59:55.166Z,5.82
2022-09-22T02:02:26.184Z,5.72
2022-09-22T02:04:58.661Z,6.97
2022-09-22T02:07:31.217Z,7.63
2022-09-22T02:10:01.237Z,7.40
2022-09-22T02:12:29.629Z,6.60
2022-09-22T02:14:58.122Z,6.75
2022-09-22T02:17:30.594Z,5.88
2022-09-22T02:20:01.318Z,6.30
2022-09-22T02:22:29.956Z,6.85
2022-09-22T02:24:57.798Z,6.50
2022-09-22T02:27:27.573Z,7.60
2022-09-22T02:29:57.556Z,7.72
2022-09-22T02:32:27.538Z,6.72
2022-09-22T02:34:57.285Z,5.90
2022-09-22T02:37:31.555Z,6.28
2022-09-22T02:40:05.937Z,6.35
2022-09-22T02:42:36.083Z,5.43
2022-09-22T02:45:07.364Z,7.10
2022-09-22T02:47:39.116Z,5.97
2022-09-22T02:50:10.005Z,5.65
2022-09-22T02:52:38.137Z,9.13
2022-09-22T02:55:07.381Z,6.28
2022-09-22T02:57:35.424Z,6.70
2022-09-22T03:00:07.593Z,7.50
2022-09-22T03:02:35.609Z,5.38
2022-09-22T03:05:03.632Z,9.05
2022-09-22T03:07:34.278Z,6.97
2022-09-22T03:10:03.342Z,8.07
2022-09-22T03:12:31.900Z,9.60
2022-09-22T03:14:59.959Z,6.75
2022-09-22T03:17:27.728Z,8.90
2022-09-22T03:19:56.058Z,7.97
2022-09-22T03:22:24.240Z,7.18
2022-09-22T03:24:53.631Z,5.82
2022-09-22T03:27:21.419Z,9.15
2022-09-22T03:29:49.233Z,8.45
2022-09-22T03:32:17.027Z,7.72
2022-09-22T03:34:45.399Z,9.20
2022-09-22T03:37:13.264Z,8.23
2022-09-22T03:39:41.059Z,10.55
2022-09-22T03:42:11.023Z,12.27
2022-09-22T03:44:39.008Z,7.50
2022-09-22T03:47:07.168Z,11.73
2022-09-22T03:49:35.136Z,7.50
2022-09-22T03:52:03.305Z,5.70
2022-09-22T03:54:32.324Z,8.68
2022-09-22T03:57:00.768Z,8.13
2022-09-22T03:59:30.207Z,10.07
2022-09-22T04:01:58.853Z,8.73
2022-09-22T04:04:26.973Z,8.50
2022-09-22T04:06:54.860Z,7.10
2022-09-22T04:09:22.827Z,7.00
2022-09-22T04:11:50.831Z,10.15
2022-09-22T04:14:19.549Z,7.32
2022-09-22T04:16:49.705Z,8.60
2022-09-22T04:19:19.611Z,9.57
2022-09-22T04:21:47.752Z,8.85
2022-09-22T04:24:17.154Z,7.57
2022-09-22T04:27:08.225Z,7.20
2022-09-22T04:29:33.204Z,8.68
2022-09-22T04:32:02.510Z,7.28
2022-09-22T04:34:31.330Z,7.38
2022-09-22T04:36:59.292Z,7.65
2022-09-22T04:39:28.856Z,6.38
2022-09-22T04:41:56.953Z,7.13
2022-09-22T04:44:24.941Z,8.50
2022-09-22T04:46:53.081Z,11.52
2022-09-22T04:49:22.714Z,10.48
2022-09-22T04:51:50.601Z,6.50
2022-09-22T04:54:18.570Z,8.90
2022-09-22T04:56:46.688Z,9.07
2022-09-22T04:59:15.979Z,6.82
2022-09-22T05:01:43.981Z,8.13
2022-09-22T05:04:12.889Z,6.38
2022-09-22T05:06:43.188Z,6.28
2022-09-22T05:09:11.175Z,7.95
2022-09-22T05:11:41.430Z,6.15
2022-09-22T05:14:09.748Z,10.90
2022-09-22T05:16:38.311Z,5.97
2022-09-22T05:19:06.036Z,8.32
2022-09-22T05:21:33.823Z,6.13
2022-09-22T05:24:04.549Z,7.20
2022-09-22T05:26:32.846Z,6.90
2022-09-22T05:29:00.816Z,7.28
2022-09-22T05:31:28.659Z,7.70
2022-09-22T05:33:56.499Z,9.18
2022-09-22T05:36:24.823Z,12.25
2022-09-22T05:38:52.938Z,9.52
2022-09-22T05:41:24.383Z,12.57
2022-09-22T05:43:52.231Z,8.68
2022-09-22T05:46:20.517Z,9.07
2022-09-22T05:48:48.811Z,7.80
2022-09-22T05:51:16.750Z,7.60
2022-09-22T05:53:44.742Z,7.68
2022-09-22T05:56:12.600Z,8.65
2022-09-22T05:58:41.984Z,16.58
2022-09-22T06:01:10.136Z,7.57
2022-09-22T06:03:38.236Z,10.75
2022-09-22T06:06:06.380Z,15.48
2022-09-22T06:08:34.440Z,16.45
2022-09-22T06:11:03.245Z,19.30
2022-09-22T06:13:31.456Z,13.38
2022-09-22T06:16:01.667Z,13.88
2022-09-22T06:18:31.505Z,10.55
2022-09-22T06:21:00.008Z,9.68
2022-09-22T06:23:28.236Z,8.82
2022-09-22T06:25:59.445Z,8.88
2022-09-22T06:28:27.780Z,7.28
2022-09-22T06:30:59.980Z,10.23
2022-09-22T06:33:29.636Z,8.98
2022-09-22T06:35:58.527Z,9.18
2022-09-22T06:38:26.421Z,9.45
2022-09-22T06:41:00.706Z,6.65
2022-09-22T06:43:28.772Z,6.10
2022-09-22T06:46:00.352Z,8.82
2022-09-22T06:48:30.725Z,8.43
2022-09-22T06:50:58.728Z,12.00
2022-09-22T06:53:27.702Z,8.07
2022-09-22T06:55:55.660Z,8.70
2022-09-22T06:58:24.182Z,8.77
2022-09-22T07:00:53.819Z,9.20
2022-09-22T07:03:24.526Z,8.38
2022-09-22T07:05:58.286Z,9.25
2022-09-22T07:08:26.731Z,11.20
2022-09-22T07:10:55.379Z,10.75
2022-09-22T07:13:24.368Z,9.70
2022-09-22T07:15:52.925Z,9.27
2022-09-22T07:18:20.788Z,8.27
2022-09-22T07:20:48.782Z,8.70
2022-09-22T07:23:21.393Z,8.25
2022-09-22T07:25:57.276Z,9.63
2022-09-22T07:28:25.924Z,12.02
2022-09-22T07:30:53.950Z,10.38
2022-09-22T07:33:23.335Z,9.27
2022-09-22T07:35:59.763Z,8.43
2022-09-22T07:38:36.482Z,9.63
2022-09-22T07:41:06.987Z,7.72
2022-09-22T07:43:35.155Z,8.82
2022-09-22T07:46:03.845Z,7.10
2022-09-22T07:48:38.079Z,8.43
2022-09-22T07:51:12.920Z,8.90
2022-09-22T07:53:45.948Z,9.40
2022-09-22T07:56:15.971Z,8.02
2022-09-22T07:58:46.896Z,10.95
2022-09-22T08:01:15.242Z,9.48
2022-09-22T08:03:43.201Z,8.98
2022-09-22T08:06:12.047Z,9.55
2022-09-22T08:08:40.359Z,7.18
2022-09-22T08:11:13.244Z,7.55
2022-09-22T08:13:43.084Z,8.63
2022-09-22T08:16:12.113Z,11.45
2022-09-22T08:18:41.149Z,8.13
2022-09-22T08:21:09.296Z,9.57
2022-09-22T08:23:37.963Z,6.85
2022-09-22T08:26:06.607Z,9.15
2022-09-22T08:28:36.270Z,7.15
2022-09-22T08:31:04.649Z,8.18
2022-09-22T08:33:34.090Z,8.68
2022-09-22T08:36:03.452Z,6.78
2022-09-22T08:38:32.796Z,6.68
2022-09-22T08:41:06.281Z,8.95
2022-09-22T08:43:36.150Z,12.48
2022-09-22T08:46:04.893Z,7.78
2022-09-22T08:48:50.956Z,7.97
2022-09-22T08:51:39.339Z,7.70
2022-09-22T08:54:08.741Z,6.90
2022-09-22T08:56:39.450Z,8.27
2022-09-22T08:59:13.416Z,6.00
2022-09-22T09:01:47.146Z,7.97
2022-09-22T09:04:31.240Z,4.93
2022-09-22T09:07:03.787Z,8.13
2022-09-22T09:09:39.564Z,8.82
2022-09-22T09:12:21.489Z,6.53
2022-09-22T09:14:59.167Z,8.57
2022-09-22T09:17:29.155Z,7.47
2022-09-22T09:19:58.659Z,5.93
2022-09-22T09:22:28.613Z,6.25
2022-09-22T09:27:49.289Z,6.05
2022-09-22T09:30:19.613Z,6.90
2022-09-22T09:32:49.656Z,4.55
2022-09-22T09:35:18.876Z,5.70
2022-09-22T09:37:47.772Z,5.13
2022-09-22T09:40:18.489Z,5.93
2022-09-22T09:42:47.694Z,4.82
2022-09-22T09:45:16.817Z,4.43
2022-09-22T09:47:59.102Z,6.65
2022-09-22T09:50:29.485Z,5.65
2022-09-22T09:52:59.337Z,4.38
2022-09-22T09:55:28.367Z,5.68
2022-09-22T09:58:03.017Z,3.47
2022-09-22T10:00:33.050Z,5.57
2022-09-22T10:03:15.977Z,3.58
2022-09-22T10:05:57.113Z,3.60
2022-09-22T10:08:27.682Z,5.32
2022-09-22T10:10:59.342Z,6.47
2022-09-22T10:13:31.912Z,2.88
2022-09-22T10:16:17.811Z,2.88
2022-09-22T10:18:45.720Z,6.82
2022-09-22T10:21:17.468Z,3.75
2022-09-22T10:23:46.678Z,4.80
2022-09-22T10:26:16.364Z,4.03
2022-09-22T10:28:44.329Z,3.42
2022-09-22T10:31:20.253Z,5.25
2022-09-22T10:33:59.836Z,4.15
2022-09-22T10:36:30.980Z,6.05
2022-09-22T10:39:00.007Z,5.25
2022-09-22T10:41:31.648Z,5.38
2022-09-22T10:44:15.544Z,5.40
2022-09-22T10:46:59.428Z,3.03
2022-09-22T10:49:36.416Z,4.47
2022-09-22T10:52:14.595Z,5.05
2022-09-22T10:55:02.063Z,3.25
2022-09-22T10:57:40.840Z,4.10
2022-09-22T11:00:12.699Z,3.38
2022-09-22T11:02:48.640Z,4.55
2022-09-22T11:05:45.193Z,4.38
2022-09-22T11:08:32.817Z,3.58
2022-09-22T11:11:22.657Z,2.40
2022-09-22T11:13:57.700Z,4.50
2022-09-22T11:16:40.140Z,5.25
2022-09-22T11:19:26.078Z,8.15
2022-09-22T11:22:02.294Z,3.92
2022-09-22T11:24:40.872Z,2.40
2022-09-22T11:27:15.697Z,3.78
2022-09-22T11:30:01.531Z,6.75
2022-09-22T11:32:42.129Z,5.07
2022-09-22T11:35:28.180Z,3.53
2022-09-22T11:38:03.130Z,2.60
2022-09-22T11:40:51.153Z,5.07
2022-09-22T11:43:29.772Z,2.35
2022-09-22T11:46:01.156Z,2.50
2022-09-22T11:48:42.516Z,2.35
2022-09-22T11:51:23.181Z,4.47
2022-09-22T11:53:58.828Z,3.97
2022-09-22T11:56:38.523Z,2.00
2022-09-22T11:59:10.483Z,2.92
2022-09-22T12:01:40.279Z,1.98
2022-09-22T12:04:16.516Z,2.08
2022-09-22T12:06:45.925Z,3.05
2022-09-22T12:09:15.553Z,3.15
2022-09-22T12:11:45.488Z,4.03
2022-09-22T12:14:15.993Z,4.28
2022-09-22T14:00:24.356Z,1.88
2022-09-22T14:02:52.368Z,1.20
2022-09-22T14:05:21.357Z,0.68
2022-09-22T14:08:10.677Z,0.82
2022-09-22T14:10:38.079Z,0.60
2022-09-22T14:13:05.702Z,1.70
2022-09-22T14:15:39.350Z,1.75
2022-09-22T14:18:10.136Z,1.67
2022-09-22T14:20:39.713Z,0.60
2022-09-22T14:23:15.018Z,2.22
2022-09-22T14:25:42.908Z,0.73
2022-09-22T14:28:16.944Z,0.93
2022-09-22T14:30:45.896Z,1.63
2022-09-22T14:33:16.774Z,0.85
2022-09-22T14:35:44.361Z,3.42
2022-09-22T14:38:21.856Z,1.45
2022-09-22T14:40:54.002Z,1.50
2022-09-22T14:43:24.058Z,1.27
2022-09-22T14:46:00.050Z,1.27
2022-09-22T14:48:31.453Z,1.77
2022-09-22T14:51:02.502Z,0.80
2022-09-22T14:53:31.981Z,1.75
2022-09-22T14:56:04.104Z,0.68
2022-09-22T14:58:37.302Z,3.30
2022-09-22T15:01:36.617Z,0.90
2022-09-22T15:04:10.865Z,0.75
2022-09-22T15:06:40.042Z,0.60
2022-09-22T15:09:08.471Z,1.02
2022-09-22T15:11:48.177Z,2.15
2022-09-22T15:14:25.789Z,1.38
2022-09-22T15:17:15.176Z,0.93
2022-09-22T15:19:42.770Z,0.73
2022-09-22T15:22:11.376Z,1.15
2022-09-22T15:24:39.661Z,1.92
2022-09-22T15:27:08.006Z,1.08
2022-09-22T15:29:35.636Z,3.63
2022-09-22T15:32:07.104Z,1.38
2022-09-22T15:34:34.685Z,1.75
2022-09-22T15:37:02.317Z,2.70
2022-09-22T15:39:29.868Z,1.50
2022-09-22T15:41:57.629Z,2.03
2022-09-22T15:44:25.243Z,2.10
2022-09-22T15:46:54.748Z,0.63
2022-09-22T15:49:26.265Z,1.58
2022-09-22T15:51:55.957Z,1.35
2022-09-22T15:54:24.553Z,0.60
2022-09-22T15:56:53.223Z,1.85
2022-09-22T15:59:22.280Z,0.98
2022-09-22T16:01:50.016Z,2.10
2022-09-22T16:04:18.441Z,2.38
2022-09-22T16:06:50.050Z,1.67
2022-09-22T16:09:18.348Z,1.98
2022-09-22T16:11:46.036Z,1.65
2022-09-22T16:14:14.088Z,3.25
2022-09-22T16:16:42.414Z,1.58
2022-09-22T16:19:10.532Z,2.08
2022-09-22T16:21:40.343Z,0.70
2022-09-22T16:24:10.497Z,0.85
2022-09-22T16:26:38.848Z,2.70
2022-09-22T16:29:06.888Z,1.40
2022-09-22T16:31:34.633Z,3.25
2022-09-22T16:34:03.330Z,3.25
2022-09-22T16:36:32.874Z,6.85
2022-09-22T16:39:01.268Z,5.90
2022-09-22T16:41:30.865Z,2.05
2022-09-22T16:43:59.057Z,0.57
2022-09-22T16:46:28.162Z,1.20
2022-09-22T16:48:56.079Z,3.55
2022-09-22T16:51:23.651Z,4.07
2022-09-22T16:53:52.540Z,2.97
2022-09-22T16:56:20.363Z,0.13
2022-09-22T16:58:49.313Z,0.20
2022-09-22T17:01:19.802Z,0.25
2022-09-22T17:03:49.326Z,0.25
2022-09-22T17:06:18.185Z,0.30
2022-09-22T17:08:45.838Z,0.45
2022-09-22T17:11:14.231Z,0.60
2022-09-22T17:13:43.319Z,1.05
2022-09-22T17:16:21.172Z,0.35
2022-09-22T17:18:50.736Z,0.52
2022-09-22T17:21:21.921Z,6.15
2022-09-22T17:23:50.253Z,0.17
2022-09-22T17:26:18.949Z,0.13
2022-09-22T17:28:46.997Z,2.50
2022-09-22T17:31:14.809Z,1.48
2022-09-22T17:33:51.934Z,3.38
2022-09-22T17:36:21.091Z,2.75
2022-09-22T17:38:50.682Z,4.88
2022-09-22T17:41:19.572Z,4.07
2022-09-22T17:43:48.012Z,1.75
2022-09-22T17:46:16.463Z,1.58
2022-09-22T17:49:03.094Z,1.95
2022-09-22T17:51:49.123Z,1.63
2022-09-22T17:54:38.684Z,4.18
2022-09-22T17:57:06.340Z,3.88
2022-09-22T17:59:34.137Z,1.50
2022-09-22T18:02:03.197Z,2.28
2022-09-22T18:04:32.165Z,1.88
2022-09-22T18:07:01.594Z,4.15
2022-09-22T18:09:32.039Z,2.25
2022-09-22T18:11:59.607Z,2.13
2022-09-22T18:14:27.205Z,5.10
2022-09-22T18:16:54.824Z,5.10
2022-09-22T18:19:22.342Z,2.50
2022-09-22T18:21:53.166Z,3.67
2022-09-22T18:24:20.762Z,5.13
2022-09-22T18:26:48.351Z,2.50
2022-09-22T18:29:17.078Z,4.28
2022-09-22T18:31:45.311Z,5.95
2022-09-22T18:34:12.892Z,5.57
2022-09-22T18:36:41.212Z,4.60
2022-09-22T18:39:10.368Z,5.60
2022-09-22T18:41:38.181Z,4.28
2022-09-22T18:44:06.506Z,5.63
2022-09-22T18:46:36.133Z,3.33
2022-09-22T18:49:09.353Z,3.83
2022-09-22T18:51:38.130Z,5.43
2022-09-22T18:54:08.323Z,5.10
2022-09-22T18:56:37.808Z,6.65
2022-09-22T18:59:05.989Z,4.68
2022-09-22T19:01:35.384Z,15.65
2022-09-22T19:04:03.477Z,19.98
2022-09-22T19:06:51.072Z,9.35
2022-09-22T19:09:18.844Z,5.38
2022-09-22T19:11:48.343Z,13.98
2022-09-22T19:14:17.733Z,20.15
2022-09-22T19:16:46.769Z,11.98
2022-09-22T19:19:14.327Z,10.75
2022-09-22T19:21:42.077Z,6.57
2022-09-22T19:24:10.492Z,7.72
2022-09-22T19:26:38.364Z,3.42
2022-09-22T19:29:07.597Z,4.80
2022-09-22T19:31:36.036Z,4.65
2022-09-22T19:34:04.680Z,4.82
2022-09-22T19:36:32.784Z,4.78
2022-09-22T19:39:00.795Z,3.65
2022-09-22T19:41:28.347Z,4.47
2022-09-22T19:43:56.485Z,4.88
2022-09-22T19:46:25.486Z,4.05
2022-09-22T19:48:53.113Z,3.88
2022-09-22T19:51:22.892Z,4.05
2022-09-22T19:53:51.681Z,3.58
2022-09-22T19:56:20.571Z,3.38
2022-09-22T19:58:48.288Z,5.00
2022-09-22T20:01:28.412Z,9.23
2022-09-22T20:03:56.052Z,3.40
2022-09-22T20:06:23.636Z,3.38
2022-09-22T20:08:55.782Z,3.90
2022-09-22T20:11:26.747Z,4.53
2022-09-22T20:14:12.203Z,4.78
2022-09-22T20:16:44.689Z,5.35
2022-09-22T20:19:14.385Z,5.45
2022-09-22T20:21:42.749Z,3.10
2022-09-22T20:24:12.369Z,5.35
2022-09-22T20:26:40.156Z,6.70
2022-09-22T20:29:07.729Z,3.20
2022-09-22T20:31:35.869Z,3.70
2022-09-22T20:34:05.523Z,3.72
2022-09-22T20:36:36.636Z,3.53
2022-09-22T20:39:05.168Z,3.65
2022-09-22T20:41:32.745Z,2.75
2022-09-22T20:44:00.288Z,4.43
2022-09-22T20:46:27.911Z,3.30
2022-09-22T20:48:57.856Z,3.25
2022-09-22T20:51:26.991Z,3.67
2022-09-22T20:53:54.569Z,4.90
2022-09-22T20:56:22.329Z,4.97
2022-09-22T20:58:49.920Z,4.43
2022-09-22T21:01:18.247Z,6.15
2022-09-22T21:03:45.877Z,4.30
2022-09-22T21:06:14.445Z,3.90
2022-09-22T21:09:01.584Z,3.38
2022-09-22T21:11:29.252Z,4.50
2022-09-22T21:13:58.724Z,6.07
2022-09-22T21:16:26.279Z,5.07
2022-09-22T21:18:53.861Z,5.90
2022-09-22T21:21:22.304Z,3.55
2022-09-22T21:23:51.425Z,6.78
2022-09-22T21:26:20.710Z,3.15
2022-09-22T21:28:50.294Z,3.42
2022-09-22T21:31:18.307Z,3.67
2022-09-22T21:33:47.474Z,6.95
2022-09-22T21:36:16.079Z,3.85
2022-09-22T21:38:44.054Z,5.40
2022-09-22T21:41:14.232Z,3.45
2022-09-22T21:43:41.979Z,4.95
2022-09-22T21:46:11.612Z,4.72
2022-09-22T21:48:39.546Z,6.68
2022-09-22T21:51:08.292Z,4.32
2022-09-22T21:53:36.307Z,3.85
2022-09-22T21:56:05.280Z,4.68
2022-09-22T21:58:35.943Z,3.80
2022-09-22T22:01:06.387Z,3.90
2022-09-22T22:03:35.076Z,4.60
2022-09-22T22:06:03.616Z,4.00
2022-09-22T22:08:36.311Z,3.50
2022-09-22T22:11:06.033Z,4.15
2022-09-22T22:13:36.089Z,4.25
2022-09-22T22:16:04.187Z,5.28
2022-09-22T22:18:31.881Z,4.88
2022-09-22T22:21:01.288Z,5.38
2022-09-22T22:23:29.808Z,3.83
2022-09-22T22:25:59.001Z,4.93
2022-09-22T22:28:26.749Z,5.80
2022-09-22T22:30:55.715Z,5.47
2022-09-22T22:33:23.451Z,5.95
2022-09-22T22:35:51.746Z,6.05
2022-09-22T22:38:19.417Z,5.72
2022-09-22T22:40:47.393Z,5.53
2022-09-22T22:43:15.300Z,5.43
2022-09-22T22:45:43.125Z,5.85
2022-09-22T22:48:12.150Z,5.75
2022-09-22T22:50:40.622Z,4.57
2022-09-22T22:53:09.141Z,5.05
2022-09-22T22:55:36.861Z,4.40
2022-09-22T22:58:04.937Z,4.38
2022-09-22T23:00:33.168Z,5.95
2022-09-22T23:03:01.378Z,4.15
2022-09-22T23:05:30.338Z,5.53
2022-09-22T23:07:57.981Z,4.80
2022-09-22T23:10:25.865Z,5.03
2022-09-22T23:12:53.818Z,6.47
2022-09-22T23:15:21.420Z,5.53
2022-09-22T23:17:49.701Z,6.93
2022-09-22T23:20:17.309Z,4.90
2022-09-22T23:22:46.241Z,9.13
2022-09-22T23:25:14.982Z,6.10
2022-09-22T23:27:47.166Z,5.32
2022-09-22T23:30:15.328Z,5.35
2022-09-22T23:32:43.049Z,6.53
2022-09-22T23:35:10.942Z,5.75
2022-09-22T23:37:38.516Z,6.25
2022-09-22T23:40:08.211Z,7.05
2022-09-22T23:42:35.829Z,4.75
2022-09-22T23:45:03.743Z,5.45
2022-09-22T23:47:32.423Z,4.72
2022-09-22T23:50:00.265Z,5.90
2022-09-22T23:52:28.013Z,4.90
2022-09-22T23:54:55.652Z,7.18
2022-09-22T23:57:24.558Z,5.20
2022-09-22T23:59:52.126Z,7.15
